Kalgoorlie Boulder Airport


Codes: YPKG/KGI
Name: Kalgoorlie Boulder Airport
City: Kalgoorlie
Country: Australia
Elevation: 1203 ft.
Wikipedia:

Photos at Kalgoorlie Boulder Airport


   Photos courtesy of SpottingLog. You can add your own sightings and photos by signing up for a free trial today.



No photos found.

Weather at Kalgoorlie Boulder Airport


Time (UTC)DescriptionTempratureWindCloud coverageVisibilityPressureHumidity
16-Jun-2024 00:00Broken Clouds12°C2 mph, 75%10000m1017hPa94%
16-Jun-2024 03:00Broken Clouds14°C9 mph, NW73%10000m1017hPa82%
16-Jun-2024 06:00Broken Clouds18°C11 mph, W68%10000m1016hPa67%
16-Jun-2024 09:00Broken Clouds19°C7 mph, W66%10000m1016hPa60%
16-Jun-2024 12:00Broken Clouds17°C4 mph, S83%10000m1018hPa63%
16-Jun-2024 15:00Broken Clouds16°C9 mph, SW79%10000m1018hPa71%
16-Jun-2024 18:00Broken Clouds15°C7 mph, S70%10000m1018hPa79%
16-Jun-2024 21:00Overcast Clouds14°C7 mph, S93%10000m1018hPa80%
17-Jun-2024 00:00Overcast Clouds14°C7 mph, S87%10000m1019hPa76%
17-Jun-2024 03:00Overcast Clouds18°C7 mph, S98%10000m1019hPa58%
17-Jun-2024 06:00Overcast Clouds19°C2 mph, SW99%10000m1017hPa53%
17-Jun-2024 09:00Overcast Clouds18°C2 mph, NE100%10000m1018hPa59%
17-Jun-2024 12:00Overcast Clouds18°C7 mph, SW100%10000m1019hPa56%
17-Jun-2024 15:00Overcast Clouds16°C7 mph, S99%10000m1019hPa64%
17-Jun-2024 18:00Broken Clouds14°C9 mph, S76%10000m1019hPa80%
17-Jun-2024 21:00Clear Sky12°C9 mph, S1%10000m1020hPa79%
18-Jun-2024 00:00Clear Sky12°C9 mph, S1%10000m1022hPa77%
18-Jun-2024 03:00Clear Sky16°C9 mph, SW0%10000m1022hPa50%
18-Jun-2024 06:00Clear Sky18°C13 mph, SW1%10000m1020hPa37%
18-Jun-2024 09:00Few Clouds15°C11 mph, SW11%10000m1021hPa45%
18-Jun-2024 12:00Scattered Clouds13°C9 mph, SW41%10000m1024hPa55%
18-Jun-2024 15:00Scattered Clouds12°C9 mph, SW36%10000m1025hPa64%
18-Jun-2024 18:00Scattered Clouds10°C9 mph, S25%10000m1026hPa73%
18-Jun-2024 21:00Few Clouds9°C9 mph, SW20%10000m1026hPa74%
19-Jun-2024 00:00Few Clouds9°C9 mph, S11%10000m1028hPa75%
19-Jun-2024 03:00Clear Sky13°C13 mph, S2%10000m1028hPa55%
19-Jun-2024 06:00Clear Sky15°C13 mph, SE9%10000m1026hPa45%
19-Jun-2024 09:00Few Clouds13°C11 mph, S15%10000m1027hPa54%
19-Jun-2024 12:00Few Clouds12°C11 mph, SE21%10000m1029hPa55%
19-Jun-2024 15:00Scattered Clouds11°C11 mph, SE30%10000m1029hPa61%
19-Jun-2024 18:00Few Clouds10°C7 mph, SE18%10000m1030hPa70%
19-Jun-2024 21:00Scattered Clouds9°C9 mph, SE30%10000m1030hPa73%
20-Jun-2024 00:00Few Clouds9°C4 mph, SE16%10000m1032hPa71%
20-Jun-2024 03:00Clear Sky13°C9 mph, SE2%10000m1031hPa49%
20-Jun-2024 06:00Clear Sky15°C9 mph, E2%10000m1029hPa44%
20-Jun-2024 09:00Clear Sky14°C7 mph, E0%10000m1029hPa49%
20-Jun-2024 12:00Clear Sky12°C4 mph, E1%10000m1030hPa55%
20-Jun-2024 15:00Clear Sky11°C7 mph, E0%10000m1029hPa62%
20-Jun-2024 18:00Clear Sky10°C9 mph, NE0%10000m1029hPa65%
20-Jun-2024 21:00Clear Sky9°C9 mph, NE0%10000m1029hPa71%